sensor_id;sensor_type;location;lat;lon;timestamp;P1;durP1;ratioP1;P2;durP2;ratioP2
39022;SDS011;25908;51.984;5.928;2023-03-23T00:01:32;6.60;;;3.35;;
39022;SDS011;25908;51.984;5.928;2023-03-23T00:04:01;7.80;;;3.55;;
39022;SDS011;25908;51.984;5.928;2023-03-23T00:06:27;7.72;;;3.88;;
39022;SDS011;25908;51.984;5.928;2023-03-23T00:08:57;9.40;;;4.32;;
39022;SDS011;25908;51.984;5.928;2023-03-23T00:11:29;6.70;;;3.65;;
39022;SDS011;25908;51.984;5.928;2023-03-23T00:13:56;6.75;;;3.45;;
39022;SDS011;25908;51.984;5.928;2023-03-23T00:16:25;7.68;;;3.30;;
39022;SDS011;25908;51.984;5.928;2023-03-23T00:21:24;6.20;;;3.67;;
39022;SDS011;25908;51.984;5.928;2023-03-23T00:23:58;10.15;;;3.58;;
39022;SDS011;25908;51.984;5.928;2023-03-23T00:26:28;7.38;;;3.35;;
39022;SDS011;25908;51.984;5.928;2023-03-23T00:28:54;5.13;;;2.80;;
39022;SDS011;25908;51.984;5.928;2023-03-23T00:31:21;8.88;;;3.63;;
39022;SDS011;25908;51.984;5.928;2023-03-23T00:33:47;6.82;;;3.25;;
39022;SDS011;25908;51.984;5.928;2023-03-23T00:36:12;7.05;;;3.22;;
39022;SDS011;25908;51.984;5.928;2023-03-23T00:38:39;6.45;;;3.45;;
39022;SDS011;25908;51.984;5.928;2023-03-23T00:41:06;7.57;;;3.65;;
39022;SDS011;25908;51.984;5.928;2023-03-23T00:43:33;6.88;;;3.22;;
39022;SDS011;25908;51.984;5.928;2023-03-23T00:46:01;8.25;;;3.33;;
39022;SDS011;25908;51.984;5.928;2023-03-23T00:48:33;7.63;;;3.33;;
39022;SDS011;25908;51.984;5.928;2023-03-23T00:51:00;7.68;;;3.40;;
39022;SDS011;25908;51.984;5.928;2023-03-23T00:53:26;8.75;;;3.60;;
39022;SDS011;25908;51.984;5.928;2023-03-23T00:55:51;6.07;;;3.20;;
39022;SDS011;25908;51.984;5.928;2023-03-23T00:58:17;6.40;;;3.30;;
39022;SDS011;25908;51.984;5.928;2023-03-23T01:00:42;6.47;;;3.53;;
39022;SDS011;25908;51.984;5.928;2023-03-23T01:03:09;7.38;;;3.45;;
39022;SDS011;25908;51.984;5.928;2023-03-23T01:05:43;15.32;;;4.75;;
39022;SDS011;25908;51.984;5.928;2023-03-23T01:08:12;8.27;;;3.88;;
39022;SDS011;25908;51.984;5.928;2023-03-23T01:10:38;6.97;;;3.08;;
39022;SDS011;25908;51.984;5.928;2023-03-23T01:13:05;7.57;;;3.38;;
39022;SDS011;25908;51.984;5.928;2023-03-23T01:15:31;7.15;;;3.05;;
39022;SDS011;25908;51.984;5.928;2023-03-23T01:17:57;7.55;;;3.63;;
39022;SDS011;25908;51.984;5.928;2023-03-23T01:20:23;5.93;;;3.00;;
39022;SDS011;25908;51.984;5.928;2023-03-23T01:22:51;6.45;;;3.40;;
39022;SDS011;25908;51.984;5.928;2023-03-23T01:25:18;8.05;;;3.72;;
39022;SDS011;25908;51.984;5.928;2023-03-23T01:27:44;7.97;;;3.17;;
39022;SDS011;25908;51.984;5.928;2023-03-23T01:30:10;6.22;;;3.70;;
39022;SDS011;25908;51.984;5.928;2023-03-23T01:32:37;6.38;;;3.38;;
39022;SDS011;25908;51.984;5.928;2023-03-23T01:35:03;6.35;;;3.40;;
39022;SDS011;25908;51.984;5.928;2023-03-23T01:37:29;6.15;;;3.10;;
39022;SDS011;25908;51.984;5.928;2023-03-23T01:39:55;6.88;;;3.08;;
39022;SDS011;25908;51.984;5.928;2023-03-23T01:42:26;8.88;;;3.30;;
39022;SDS011;25908;51.984;5.928;2023-03-23T01:47:43;8.38;;;3.67;;
39022;SDS011;25908;51.984;5.928;2023-03-23T01:50:10;7.57;;;4.35;;
39022;SDS011;25908;51.984;5.928;2023-03-23T01:52:36;5.97;;;3.30;;
39022;SDS011;25908;51.984;5.928;2023-03-23T01:55:02;5.47;;;2.70;;
39022;SDS011;25908;51.984;5.928;2023-03-23T01:57:29;6.72;;;3.45;;
39022;SDS011;25908;51.984;5.928;2023-03-23T01:59:56;6.07;;;3.17;;
39022;SDS011;25908;51.984;5.928;2023-03-23T02:02:31;5.90;;;3.55;;
39022;SDS011;25908;51.984;5.928;2023-03-23T02:05:01;5.07;;;3.25;;
39022;SDS011;25908;51.984;5.928;2023-03-23T02:07:33;7.03;;;3.22;;
39022;SDS011;25908;51.984;5.928;2023-03-23T02:09:59;7.43;;;4.47;;
39022;SDS011;25908;51.984;5.928;2023-03-23T02:12:25;5.90;;;3.30;;
39022;SDS011;25908;51.984;5.928;2023-03-23T02:14:51;5.97;;;3.58;;
39022;SDS011;25908;51.984;5.928;2023-03-23T02:17:23;8.02;;;4.25;;
39022;SDS011;25908;51.984;5.928;2023-03-23T02:25:51;7.00;;;3.42;;
39022;SDS011;25908;51.984;5.928;2023-03-23T02:33:58;6.38;;;3.67;;
39022;SDS011;25908;51.984;5.928;2023-03-23T02:36:33;5.05;;;3.20;;
39022;SDS011;25908;51.984;5.928;2023-03-23T02:39:05;6.47;;;3.30;;
39022;SDS011;25908;51.984;5.928;2023-03-23T02:41:43;6.28;;;3.53;;
39022;SDS011;25908;51.984;5.928;2023-03-23T02:44:14;7.38;;;3.78;;
39022;SDS011;25908;51.984;5.928;2023-03-23T02:46:41;6.47;;;3.80;;
39022;SDS011;25908;51.984;5.928;2023-03-23T02:49:08;7.65;;;4.20;;
39022;SDS011;25908;51.984;5.928;2023-03-23T02:51:36;5.65;;;3.28;;
39022;SDS011;25908;51.984;5.928;2023-03-23T02:54:03;6.45;;;3.53;;
39022;SDS011;25908;51.984;5.928;2023-03-23T02:56:30;4.88;;;3.45;;
39022;SDS011;25908;51.984;5.928;2023-03-23T02:58:58;6.15;;;3.92;;
39022;SDS011;25908;51.984;5.928;2023-03-23T03:03:57;6.40;;;3.33;;
39022;SDS011;25908;51.984;5.928;2023-03-23T03:06:36;9.75;;;4.55;;
39022;SDS011;25908;51.984;5.928;2023-03-23T03:09:12;5.72;;;3.30;;
39022;SDS011;25908;51.984;5.928;2023-03-23T03:12:02;5.60;;;3.35;;
39022;SDS011;25908;51.984;5.928;2023-03-23T03:14:44;5.90;;;3.50;;
39022;SDS011;25908;51.984;5.928;2023-03-23T03:17:25;6.65;;;3.40;;
39022;SDS011;25908;51.984;5.928;2023-03-23T03:19:57;8.75;;;3.92;;
39022;SDS011;25908;51.984;5.928;2023-03-23T03:22:31;6.20;;;3.45;;
39022;SDS011;25908;51.984;5.928;2023-03-23T03:24:58;5.68;;;3.20;;
39022;SDS011;25908;51.984;5.928;2023-03-23T03:27:26;6.03;;;3.33;;
39022;SDS011;25908;51.984;5.928;2023-03-23T03:29:55;9.27;;;3.28;;
39022;SDS011;25908;51.984;5.928;2023-03-23T03:32:25;5.15;;;3.10;;
39022;SDS011;25908;51.984;5.928;2023-03-23T03:35:08;6.45;;;3.33;;
39022;SDS011;25908;51.984;5.928;2023-03-23T03:37:34;6.63;;;3.38;;
39022;SDS011;25908;51.984;5.928;2023-03-23T03:40:06;6.57;;;3.38;;
39022;SDS011;25908;51.984;5.928;2023-03-23T03:42:38;7.93;;;4.03;;
39022;SDS011;25908;51.984;5.928;2023-03-23T03:45:04;5.68;;;3.30;;
39022;SDS011;25908;51.984;5.928;2023-03-23T03:47:32;6.78;;;3.72;;
39022;SDS011;25908;51.984;5.928;2023-03-23T03:49:57;5.30;;;3.30;;
39022;SDS011;25908;51.984;5.928;2023-03-23T03:52:23;7.28;;;3.50;;
39022;SDS011;25908;51.984;5.928;2023-03-23T03:54:49;6.75;;;3.70;;
39022;SDS011;25908;51.984;5.928;2023-03-23T03:57:14;6.47;;;3.80;;
39022;SDS011;25908;51.984;5.928;2023-03-23T03:59:42;7.72;;;3.97;;
39022;SDS011;25908;51.984;5.928;2023-03-23T04:02:08;6.43;;;3.72;;
39022;SDS011;25908;51.984;5.928;2023-03-23T04:04:34;6.60;;;3.40;;
39022;SDS011;25908;51.984;5.928;2023-03-23T04:07:00;7.00;;;3.65;;
39022;SDS011;25908;51.984;5.928;2023-03-23T04:09:27;9.13;;;3.47;;
39022;SDS011;25908;51.984;5.928;2023-03-23T04:11:53;6.10;;;3.67;;
39022;SDS011;25908;51.984;5.928;2023-03-23T04:14:18;4.85;;;2.70;;
39022;SDS011;25908;51.984;5.928;2023-03-23T04:16:44;4.13;;;2.95;;
39022;SDS011;25908;51.984;5.928;2023-03-23T04:19:10;6.57;;;3.20;;
39022;SDS011;25908;51.984;5.928;2023-03-23T04:21:37;5.30;;;2.92;;
39022;SDS011;25908;51.984;5.928;2023-03-23T04:24:03;7.82;;;3.10;;
39022;SDS011;25908;51.984;5.928;2023-03-23T04:26:29;5.30;;;2.90;;
39022;SDS011;25908;51.984;5.928;2023-03-23T04:28:55;6.03;;;3.33;;
39022;SDS011;25908;51.984;5.928;2023-03-23T04:31:21;5.85;;;2.97;;
39022;SDS011;25908;51.984;5.928;2023-03-23T04:33:49;7.38;;;3.45;;
39022;SDS011;25908;51.984;5.928;2023-03-23T04:36:17;7.15;;;3.40;;
39022;SDS011;25908;51.984;5.928;2023-03-23T04:38:43;7.68;;;3.55;;
39022;SDS011;25908;51.984;5.928;2023-03-23T04:41:09;8.13;;;3.35;;
39022;SDS011;25908;51.984;5.928;2023-03-23T04:43:34;6.30;;;2.92;;
39022;SDS011;25908;51.984;5.928;2023-03-23T04:46:06;6.22;;;2.97;;
39022;SDS011;25908;51.984;5.928;2023-03-23T04:48:33;6.20;;;2.78;;
39022;SDS011;25908;51.984;5.928;2023-03-23T04:51:01;5.78;;;2.78;;
39022;SDS011;25908;51.984;5.928;2023-03-23T04:53:29;6.55;;;2.58;;
39022;SDS011;25908;51.984;5.928;2023-03-23T04:55:55;6.13;;;2.20;;
39022;SDS011;25908;51.984;5.928;2023-03-23T04:58:20;8.30;;;3.58;;
39022;SDS011;25908;51.984;5.928;2023-03-23T05:00:48;5.43;;;2.85;;
39022;SDS011;25908;51.984;5.928;2023-03-23T05:03:15;6.82;;;3.15;;
39022;SDS011;25908;51.984;5.928;2023-03-23T05:05:42;5.03;;;2.45;;
39022;SDS011;25908;51.984;5.928;2023-03-23T05:08:07;6.60;;;2.33;;
39022;SDS011;25908;51.984;5.928;2023-03-23T05:10:33;4.97;;;2.08;;
39022;SDS011;25908;51.984;5.928;2023-03-23T05:12:59;4.57;;;1.75;;
39022;SDS011;25908;51.984;5.928;2023-03-23T05:15:24;8.70;;;2.53;;
39022;SDS011;25908;51.984;5.928;2023-03-23T05:17:53;9.45;;;3.00;;
39022;SDS011;25908;51.984;5.928;2023-03-23T05:20:19;8.27;;;2.60;;
39022;SDS011;25908;51.984;5.928;2023-03-23T05:22:45;4.63;;;2.03;;
39022;SDS011;25908;51.984;5.928;2023-03-23T05:25:14;7.47;;;2.10;;
39022;SDS011;25908;51.984;5.928;2023-03-23T05:27:40;8.10;;;2.13;;
39022;SDS011;25908;51.984;5.928;2023-03-23T05:30:13;7.53;;;2.20;;
39022;SDS011;25908;51.984;5.928;2023-03-23T05:32:41;6.85;;;2.40;;
39022;SDS011;25908;51.984;5.928;2023-03-23T05:35:12;8.60;;;2.40;;
39022;SDS011;25908;51.984;5.928;2023-03-23T05:37:38;6.55;;;2.20;;
39022;SDS011;25908;51.984;5.928;2023-03-23T05:40:04;13.95;;;4.68;;
39022;SDS011;25908;51.984;5.928;2023-03-23T05:42:34;7.82;;;1.75;;
39022;SDS011;25908;51.984;5.928;2023-03-23T05:45:01;8.63;;;2.63;;
39022;SDS011;25908;51.984;5.928;2023-03-23T05:47:28;8.85;;;2.00;;
39022;SDS011;25908;51.984;5.928;2023-03-23T05:49:54;6.10;;;1.92;;
39022;SDS011;25908;51.984;5.928;2023-03-23T05:52:19;9.30;;;2.38;;
39022;SDS011;25908;51.984;5.928;2023-03-23T05:54:45;8.75;;;2.53;;
39022;SDS011;25908;51.984;5.928;2023-03-23T05:57:11;8.75;;;1.90;;
39022;SDS011;25908;51.984;5.928;2023-03-23T05:59:37;7.25;;;1.48;;
39022;SDS011;25908;51.984;5.928;2023-03-23T06:02:03;7.30;;;1.73;;
39022;SDS011;25908;51.984;5.928;2023-03-23T06:04:30;7.18;;;2.13;;
39022;SDS011;25908;51.984;5.928;2023-03-23T06:06:59;7.72;;;1.85;;
39022;SDS011;25908;51.984;5.928;2023-03-23T06:09:26;7.18;;;2.00;;
39022;SDS011;25908;51.984;5.928;2023-03-23T06:11:51;7.70;;;1.50;;
39022;SDS011;25908;51.984;5.928;2023-03-23T06:14:17;5.38;;;1.70;;
39022;SDS011;25908;51.984;5.928;2023-03-23T06:16:43;8.65;;;1.73;;
39022;SDS011;25908;51.984;5.928;2023-03-23T06:19:09;6.85;;;1.50;;
39022;SDS011;25908;51.984;5.928;2023-03-23T06:21:36;11.40;;;1.70;;
39022;SDS011;25908;51.984;5.928;2023-03-23T06:24:02;8.10;;;1.60;;
39022;SDS011;25908;51.984;5.928;2023-03-23T06:26:32;4.75;;;1.40;;
39022;SDS011;25908;51.984;5.928;2023-03-23T06:29:00;5.75;;;1.48;;
39022;SDS011;25908;51.984;5.928;2023-03-23T06:31:26;9.50;;;1.95;;
39022;SDS011;25908;51.984;5.928;2023-03-23T06:33:52;6.20;;;1.67;;
39022;SDS011;25908;51.984;5.928;2023-03-23T06:36:18;5.68;;;1.20;;
39022;SDS011;25908;51.984;5.928;2023-03-23T06:38:44;8.13;;;1.75;;
39022;SDS011;25908;51.984;5.928;2023-03-23T06:41:10;8.40;;;2.42;;
39022;SDS011;25908;51.984;5.928;2023-03-23T06:43:36;6.68;;;1.80;;
39022;SDS011;25908;51.984;5.928;2023-03-23T06:46:04;6.88;;;2.05;;
39022;SDS011;25908;51.984;5.928;2023-03-23T06:48:30;6.38;;;1.38;;
39022;SDS011;25908;51.984;5.928;2023-03-23T06:50:56;11.13;;;2.35;;
39022;SDS011;25908;51.984;5.928;2023-03-23T06:53:22;7.93;;;1.73;;
39022;SDS011;25908;51.984;5.928;2023-03-23T06:55:48;6.38;;;1.95;;
39022;SDS011;25908;51.984;5.928;2023-03-23T06:58:14;7.93;;;1.90;;
39022;SDS011;25908;51.984;5.928;2023-03-23T07:00:39;10.52;;;2.00;;
39022;SDS011;25908;51.984;5.928;2023-03-23T07:03:05;12.43;;;2.35;;
39022;SDS011;25908;51.984;5.928;2023-03-23T07:05:32;5.45;;;1.60;;
39022;SDS011;25908;51.984;5.928;2023-03-23T07:07:58;8.32;;;2.65;;
39022;SDS011;25908;51.984;5.928;2023-03-23T07:10:24;9.82;;;1.90;;
39022;SDS011;25908;51.984;5.928;2023-03-23T07:12:49;9.15;;;1.92;;
39022;SDS011;25908;51.984;5.928;2023-03-23T07:15:15;11.20;;;2.63;;
39022;SDS011;25908;51.984;5.928;2023-03-23T07:17:41;10.27;;;2.30;;
39022;SDS011;25908;51.984;5.928;2023-03-23T07:20:06;8.77;;;1.90;;
39022;SDS011;25908;51.984;5.928;2023-03-23T07:22:33;7.53;;;1.80;;
39022;SDS011;25908;51.984;5.928;2023-03-23T07:24:59;8.25;;;1.85;;
39022;SDS011;25908;51.984;5.928;2023-03-23T07:27:24;7.55;;;1.73;;
39022;SDS011;25908;51.984;5.928;2023-03-23T07:29:51;8.90;;;1.90;;
39022;SDS011;25908;51.984;5.928;2023-03-23T07:32:16;10.02;;;2.25;;
39022;SDS011;25908;51.984;5.928;2023-03-23T07:34:42;8.30;;;2.17;;
39022;SDS011;25908;51.984;5.928;2023-03-23T07:37:08;7.70;;;2.35;;
39022;SDS011;25908;51.984;5.928;2023-03-23T07:39:34;8.48;;;2.13;;
39022;SDS011;25908;51.984;5.928;2023-03-23T07:42:00;7.43;;;1.55;;
39022;SDS011;25908;51.984;5.928;2023-03-23T07:44:26;5.53;;;1.55;;
39022;SDS011;25908;51.984;5.928;2023-03-23T07:46:51;7.97;;;1.80;;
39022;SDS011;25908;51.984;5.928;2023-03-23T07:49:17;6.00;;;1.38;;
39022;SDS011;25908;51.984;5.928;2023-03-23T07:51:43;6.40;;;1.42;;
39022;SDS011;25908;51.984;5.928;2023-03-23T07:54:10;5.18;;;1.10;;
39022;SDS011;25908;51.984;5.928;2023-03-23T07:56:36;5.60;;;1.20;;
39022;SDS011;25908;51.984;5.928;2023-03-23T07:59:04;4.15;;;1.50;;
39022;SDS011;25908;51.984;5.928;2023-03-23T08:01:30;4.78;;;1.30;;
39022;SDS011;25908;51.984;5.928;2023-03-23T08:03:57;8.73;;;1.75;;
39022;SDS011;25908;51.984;5.928;2023-03-23T08:06:23;6.55;;;1.80;;
39022;SDS011;25908;51.984;5.928;2023-03-23T08:08:49;6.07;;;1.80;;
39022;SDS011;25908;51.984;5.928;2023-03-23T08:11:15;7.65;;;1.52;;
39022;SDS011;25908;51.984;5.928;2023-03-23T08:13:42;5.85;;;1.73;;
39022;SDS011;25908;51.984;5.928;2023-03-23T08:16:08;6.50;;;1.83;;
39022;SDS011;25908;51.984;5.928;2023-03-23T08:18:34;10.30;;;1.90;;
39022;SDS011;25908;51.984;5.928;2023-03-23T08:21:01;6.93;;;2.30;;
39022;SDS011;25908;51.984;5.928;2023-03-23T08:23:29;8.35;;;2.17;;
39022;SDS011;25908;51.984;5.928;2023-03-23T08:25:55;7.85;;;1.80;;
39022;SDS011;25908;51.984;5.928;2023-03-23T08:28:21;6.88;;;1.83;;
39022;SDS011;25908;51.984;5.928;2023-03-23T08:30:47;7.15;;;2.00;;
39022;SDS011;25908;51.984;5.928;2023-03-23T08:33:13;6.03;;;2.17;;
39022;SDS011;25908;51.984;5.928;2023-03-23T08:35:39;8.35;;;2.08;;
39022;SDS011;25908;51.984;5.928;2023-03-23T08:38:05;8.85;;;2.33;;
39022;SDS011;25908;51.984;5.928;2023-03-23T08:40:31;7.32;;;1.80;;
39022;SDS011;25908;51.984;5.928;2023-03-23T08:42:57;7.53;;;1.75;;
39022;SDS011;25908;51.984;5.928;2023-03-23T08:45:24;4.80;;;1.50;;
39022;SDS011;25908;51.984;5.928;2023-03-23T08:47:51;8.23;;;1.80;;
39022;SDS011;25908;51.984;5.928;2023-03-23T08:50:19;6.45;;;1.60;;
39022;SDS011;25908;51.984;5.928;2023-03-23T08:52:47;6.13;;;1.58;;
39022;SDS011;25908;51.984;5.928;2023-03-23T08:55:14;5.40;;;1.70;;
39022;SDS011;25908;51.984;5.928;2023-03-23T08:57:41;5.45;;;1.55;;
39022;SDS011;25908;51.984;5.928;2023-03-23T09:00:10;7.22;;;1.98;;
39022;SDS011;25908;51.984;5.928;2023-03-23T09:02:47;4.63;;;1.10;;
39022;SDS011;25908;51.984;5.928;2023-03-23T09:05:15;4.70;;;1.55;;
39022;SDS011;25908;51.984;5.928;2023-03-23T09:07:44;3.78;;;1.10;;
39022;SDS011;25908;51.984;5.928;2023-03-23T09:10:12;6.90;;;1.20;;
39022;SDS011;25908;51.984;5.928;2023-03-23T09:12:38;6.45;;;1.63;;
39022;SDS011;25908;51.984;5.928;2023-03-23T09:15:05;5.35;;;1.30;;
39022;SDS011;25908;51.984;5.928;2023-03-23T09:17:36;3.95;;;1.20;;
39022;SDS011;25908;51.984;5.928;2023-03-23T09:20:13;4.80;;;1.52;;
39022;SDS011;25908;51.984;5.928;2023-03-23T09:22:41;4.82;;;1.50;;
39022;SDS011;25908;51.984;5.928;2023-03-23T09:25:09;6.78;;;0.93;;
39022;SDS011;25908;51.984;5.928;2023-03-23T09:27:37;6.00;;;1.30;;
39022;SDS011;25908;51.984;5.928;2023-03-23T09:30:08;3.00;;;0.90;;
39022;SDS011;25908;51.984;5.928;2023-03-23T09:32:36;3.80;;;1.02;;
39022;SDS011;25908;51.984;5.928;2023-03-23T09:35:03;4.68;;;1.10;;
39022;SDS011;25908;51.984;5.928;2023-03-23T09:37:33;4.32;;;1.08;;
39022;SDS011;25908;51.984;5.928;2023-03-23T09:40:00;5.72;;;1.30;;
39022;SDS011;25908;51.984;5.928;2023-03-23T09:42:31;5.47;;;1.17;;
39022;SDS011;25908;51.984;5.928;2023-03-23T09:45:13;5.50;;;1.00;;
39022;SDS011;25908;51.984;5.928;2023-03-23T09:50:30;6.35;;;1.35;;
39022;SDS011;25908;51.984;5.928;2023-03-23T09:55:42;7.93;;;2.00;;
39022;SDS011;25908;51.984;5.928;2023-03-23T09:58:23;6.38;;;1.60;;
39022;SDS011;25908;51.984;5.928;2023-03-23T10:01:08;7.25;;;1.58;;
39022;SDS011;25908;51.984;5.928;2023-03-23T10:03:59;7.75;;;2.50;;
39022;SDS011;25908;51.984;5.928;2023-03-23T10:06:30;7.75;;;1.65;;
39022;SDS011;25908;51.984;5.928;2023-03-23T10:08:57;7.47;;;2.05;;
39022;SDS011;25908;51.984;5.928;2023-03-23T10:11:47;9.13;;;2.10;;
39022;SDS011;25908;51.984;5.928;2023-03-23T10:17:16;8.48;;;2.13;;
39022;SDS011;25908;51.984;5.928;2023-03-23T10:19:53;10.15;;;1.85;;
39022;SDS011;25908;51.984;5.928;2023-03-23T10:22:42;8.32;;;2.08;;
39022;SDS011;25908;51.984;5.928;2023-03-23T10:25:19;8.07;;;2.00;;
39022;SDS011;25908;51.984;5.928;2023-03-23T10:28:12;6.18;;;1.70;;
39022;SDS011;25908;51.984;5.928;2023-03-23T10:30:43;11.00;;;2.20;;
39022;SDS011;25908;51.984;5.928;2023-03-23T10:33:30;8.02;;;1.80;;
39022;SDS011;25908;51.984;5.928;2023-03-23T10:36:01;7.13;;;1.65;;
39022;SDS011;25908;51.984;5.928;2023-03-23T10:38:33;11.95;;;2.78;;
39022;SDS011;25908;51.984;5.928;2023-03-23T10:41:07;15.20;;;2.58;;
39022;SDS011;25908;51.984;5.928;2023-03-23T10:43:36;12.82;;;2.35;;
39022;SDS011;25908;51.984;5.928;2023-03-23T10:49:02;7.90;;;2.22;;
39022;SDS011;25908;51.984;5.928;2023-03-23T10:51:37;9.85;;;2.60;;
39022;SDS011;25908;51.984;5.928;2023-03-23T10:54:06;16.25;;;2.80;;
39022;SDS011;25908;51.984;5.928;2023-03-23T10:56:40;9.23;;;2.40;;
39022;SDS011;25908;51.984;5.928;2023-03-23T10:59:11;13.30;;;2.10;;
39022;SDS011;25908;51.984;5.928;2023-03-23T11:01:45;6.97;;;2.20;;
39022;SDS011;25908;51.984;5.928;2023-03-23T11:04:15;8.23;;;1.70;;
39022;SDS011;25908;51.984;5.928;2023-03-23T11:06:46;8.32;;;2.55;;
39022;SDS011;25908;51.984;5.928;2023-03-23T11:09:18;8.05;;;1.80;;
39022;SDS011;25908;51.984;5.928;2023-03-23T11:11:49;8.20;;;1.73;;
39022;SDS011;25908;51.984;5.928;2023-03-23T11:14:23;10.57;;;2.28;;
39022;SDS011;25908;51.984;5.928;2023-03-23T11:19:27;8.15;;;1.70;;
39022;SDS011;25908;51.984;5.928;2023-03-23T11:22:05;10.68;;;2.47;;
39022;SDS011;25908;51.984;5.928;2023-03-23T11:24:41;6.60;;;1.85;;
39022;SDS011;25908;51.984;5.928;2023-03-23T11:27:09;10.02;;;2.65;;
39022;SDS011;25908;51.984;5.928;2023-03-23T11:29:47;9.40;;;2.15;;
39022;SDS011;25908;51.984;5.928;2023-03-23T11:32:18;10.52;;;2.45;;
39022;SDS011;25908;51.984;5.928;2023-03-23T11:34:48;10.13;;;1.90;;
39022;SDS011;25908;51.984;5.928;2023-03-23T11:37:35;9.40;;;2.40;;
39022;SDS011;25908;51.984;5.928;2023-03-23T11:42:36;7.47;;;1.88;;
39022;SDS011;25908;51.984;5.928;2023-03-23T11:45:24;8.93;;;1.75;;
39022;SDS011;25908;51.984;5.928;2023-03-23T11:47:55;11.25;;;1.90;;
39022;SDS011;25908;51.984;5.928;2023-03-23T11:50:33;6.50;;;1.70;;
39022;SDS011;25908;51.984;5.928;2023-03-23T11:53:11;9.95;;;2.05;;
39022;SDS011;25908;51.984;5.928;2023-03-23T11:58:17;9.25;;;2.08;;
39022;SDS011;25908;51.984;5.928;2023-03-23T12:00:58;9.73;;;2.05;;
39022;SDS011;25908;51.984;5.928;2023-03-23T12:06:11;8.65;;;1.90;;
39022;SDS011;25908;51.984;5.928;2023-03-23T12:08:54;6.18;;;1.70;;
39022;SDS011;25908;51.984;5.928;2023-03-23T12:11:40;7.80;;;2.30;;
39022;SDS011;25908;51.984;5.928;2023-03-23T12:14:19;7.88;;;2.08;;
39022;SDS011;25908;51.984;5.928;2023-03-23T12:22:19;7.97;;;1.95;;
39022;SDS011;25908;51.984;5.928;2023-03-23T12:38:15;4.85;;;1.85;;
39022;SDS011;25908;51.984;5.928;2023-03-23T12:41:00;8.00;;;1.92;;
39022;SDS011;25908;51.984;5.928;2023-03-23T12:48:57;5.75;;;2.08;;
39022;SDS011;25908;51.984;5.928;2023-03-23T12:51:50;6.35;;;2.03;;
39022;SDS011;25908;51.984;5.928;2023-03-23T12:54:33;10.93;;;1.90;;
39022;SDS011;25908;51.984;5.928;2023-03-23T12:57:14;7.18;;;1.95;;
39022;SDS011;25908;51.984;5.928;2023-03-23T12:59:45;8.00;;;1.83;;
39022;SDS011;25908;51.984;5.928;2023-03-23T13:04:56;9.60;;;2.57;;
39022;SDS011;25908;51.984;5.928;2023-03-23T13:07:26;9.10;;;2.30;;
39022;SDS011;25908;51.984;5.928;2023-03-23T13:10:04;8.43;;;2.50;;
39022;SDS011;25908;51.984;5.928;2023-03-23T13:12:40;11.40;;;2.33;;
39022;SDS011;25908;51.984;5.928;2023-03-23T13:15:13;10.52;;;2.50;;
39022;SDS011;25908;51.984;5.928;2023-03-23T13:23:28;9.60;;;2.15;;
39022;SDS011;25908;51.984;5.928;2023-03-23T13:26:12;9.40;;;2.28;;
39022;SDS011;25908;51.984;5.928;2023-03-23T13:31:34;8.50;;;2.22;;
39022;SDS011;25908;51.984;5.928;2023-03-23T13:36:37;6.18;;;1.38;;
39022;SDS011;25908;51.984;5.928;2023-03-23T13:39:06;5.85;;;1.42;;
39022;SDS011;25908;51.984;5.928;2023-03-23T13:41:58;8.15;;;2.08;;
39022;SDS011;25908;51.984;5.928;2023-03-23T13:44:25;7.13;;;1.50;;
39022;SDS011;25908;51.984;5.928;2023-03-23T13:50:02;7.45;;;1.55;;
39022;SDS011;25908;51.984;5.928;2023-03-23T13:57:57;7.50;;;1.83;;
39022;SDS011;25908;51.984;5.928;2023-03-23T14:02:59;5.10;;;1.38;;
39022;SDS011;25908;51.984;5.928;2023-03-23T14:05:37;6.78;;;1.70;;
39022;SDS011;25908;51.984;5.928;2023-03-23T14:11:01;6.20;;;1.80;;
39022;SDS011;25908;51.984;5.928;2023-03-23T14:16:15;6.05;;;1.73;;
39022;SDS011;25908;51.984;5.928;2023-03-23T14:18:41;5.60;;;1.88;;
39022;SDS011;25908;51.984;5.928;2023-03-23T14:21:15;5.32;;;1.67;;
39022;SDS011;25908;51.984;5.928;2023-03-23T14:23:42;7.75;;;2.13;;
39022;SDS011;25908;51.984;5.928;2023-03-23T14:26:26;5.80;;;1.80;;
39022;SDS011;25908;51.984;5.928;2023-03-23T14:28:52;8.48;;;2.95;;
39022;SDS011;25908;51.984;5.928;2023-03-23T14:31:25;6.85;;;2.10;;
39022;SDS011;25908;51.984;5.928;2023-03-23T14:33:52;5.70;;;2.00;;
39022;SDS011;25908;51.984;5.928;2023-03-23T14:36:26;6.13;;;2.03;;
39022;SDS011;25908;51.984;5.928;2023-03-23T14:38:58;9.02;;;2.97;;
39022;SDS011;25908;51.984;5.928;2023-03-23T14:41:44;9.98;;;2.75;;
39022;SDS011;25908;51.984;5.928;2023-03-23T14:44:12;8.65;;;2.40;;
39022;SDS011;25908;51.984;5.928;2023-03-23T14:46:42;7.35;;;2.45;;
39022;SDS011;25908;51.984;5.928;2023-03-23T14:49:16;7.63;;;2.40;;
39022;SDS011;25908;51.984;5.928;2023-03-23T14:51:51;5.60;;;2.03;;
39022;SDS011;25908;51.984;5.928;2023-03-23T14:54:22;6.32;;;2.60;;
39022;SDS011;25908;51.984;5.928;2023-03-23T14:56:50;8.73;;;2.65;;
39022;SDS011;25908;51.984;5.928;2023-03-23T14:59:16;9.88;;;2.42;;
39022;SDS011;25908;51.984;5.928;2023-03-23T15:01:41;7.82;;;2.30;;
39022;SDS011;25908;51.984;5.928;2023-03-23T15:04:13;7.68;;;2.03;;
39022;SDS011;25908;51.984;5.928;2023-03-23T15:06:51;10.32;;;2.38;;
39022;SDS011;25908;51.984;5.928;2023-03-23T15:09:21;7.25;;;1.70;;
39022;SDS011;25908;51.984;5.928;2023-03-23T15:11:52;8.98;;;2.22;;
39022;SDS011;25908;51.984;5.928;2023-03-23T15:14:20;9.93;;;2.08;;
39022;SDS011;25908;51.984;5.928;2023-03-23T15:16:48;7.28;;;1.90;;
39022;SDS011;25908;51.984;5.928;2023-03-23T15:19:21;10.40;;;2.60;;
39022;SDS011;25908;51.984;5.928;2023-03-23T15:22:14;7.60;;;1.88;;
39022;SDS011;25908;51.984;5.928;2023-03-23T15:24:45;6.68;;;1.85;;
39022;SDS011;25908;51.984;5.928;2023-03-23T15:27:17;7.93;;;1.88;;
39022;SDS011;25908;51.984;5.928;2023-03-23T15:29:58;15.27;;;2.17;;
39022;SDS011;25908;51.984;5.928;2023-03-23T15:32:40;7.82;;;1.83;;
39022;SDS011;25908;51.984;5.928;2023-03-23T15:35:14;9.63;;;2.17;;
39022;SDS011;25908;51.984;5.928;2023-03-23T15:37:42;9.57;;;2.15;;
39022;SDS011;25908;51.984;5.928;2023-03-23T15:40:14;9.45;;;2.72;;
39022;SDS011;25908;51.984;5.928;2023-03-23T15:42:42;7.40;;;2.22;;
39022;SDS011;25908;51.984;5.928;2023-03-23T15:47:37;7.47;;;2.20;;
39022;SDS011;25908;51.984;5.928;2023-03-23T15:52:37;9.80;;;2.47;;
39022;SDS011;25908;51.984;5.928;2023-03-23T15:55:03;7.68;;;1.85;;
39022;SDS011;25908;51.984;5.928;2023-03-23T15:57:41;9.90;;;2.45;;
39022;SDS011;25908;51.984;5.928;2023-03-23T16:00:07;8.88;;;2.15;;
39022;SDS011;25908;51.984;5.928;2023-03-23T16:02:33;9.15;;;2.20;;
39022;SDS011;25908;51.984;5.928;2023-03-23T16:05:00;10.35;;;2.80;;
39022;SDS011;25908;51.984;5.928;2023-03-23T16:07:25;10.13;;;3.00;;
39022;SDS011;25908;51.984;5.928;2023-03-23T16:09:51;9.20;;;1.98;;
39022;SDS011;25908;51.984;5.928;2023-03-23T16:12:16;9.75;;;2.22;;
39022;SDS011;25908;51.984;5.928;2023-03-23T16:14:42;13.60;;;3.28;;
39022;SDS011;25908;51.984;5.928;2023-03-23T16:17:09;11.82;;;3.17;;
39022;SDS011;25908;51.984;5.928;2023-03-23T16:19:39;9.30;;;2.45;;
39022;SDS011;25908;51.984;5.928;2023-03-23T16:22:05;11.70;;;2.80;;
39022;SDS011;25908;51.984;5.928;2023-03-23T16:24:31;6.05;;;2.10;;
39022;SDS011;25908;51.984;5.928;2023-03-23T16:26:56;10.45;;;2.70;;
39022;SDS011;25908;51.984;5.928;2023-03-23T16:29:22;11.38;;;2.65;;
39022;SDS011;25908;51.984;5.928;2023-03-23T16:31:47;8.70;;;2.10;;
39022;SDS011;25908;51.984;5.928;2023-03-23T16:34:13;7.25;;;1.98;;
39022;SDS011;25908;51.984;5.928;2023-03-23T16:36:38;7.60;;;1.95;;
39022;SDS011;25908;51.984;5.928;2023-03-23T16:39:04;8.27;;;2.78;;
39022;SDS011;25908;51.984;5.928;2023-03-23T16:41:29;7.25;;;2.22;;